Time,TemperatureF,DewpointF,PressureIn,WindDirection,WindDirectionDegrees,WindSpeedMPH,WindSpeedGustMPH,Humidity,HourlyPrecipIn,Conditions,Clouds,dailyrainin,SolarRadiationWatts/m^2,SoftwareType,DateUTC
2015-04-18 00:02:00,47.7,7.3,30.35,West,270,2.4,2.4,19,0.00,CLR,FEW,0.00,0.0,WeatherDisplay:10.37,2015-04-18 07:02:00,
2015-04-18 00:07:00,47.5,7.2,30.35,West,270,2.6,2.6,19,0.00,CLR,FEW,0.00,0.0,WeatherDisplay:10.37,2015-04-18 07:07:00,
2015-04-18 00:12:00,47.7,7.3,30.35,West,270,2.4,2.4,19,0.00,CLR,FEW,0.00,0.0,WeatherDisplay:10.37,2015-04-18 07:12:00,
2015-04-18 00:17:00,47.5,7.2,30.35,West,270,2.3,2.3,19,0.00,CLR,FEW,0.00,0.0,WeatherDisplay:10.37,2015-04-18 07:17:00,
2015-04-18 00:22:00,47.3,7.0,30.32,West,270,2.3,2.3,19,0.00,CLR,FEW,0.00,0.0,WeatherDisplay:10.37,2015-04-18 07:22:00,
2015-04-18 00:27:00,47.1,6.9,30.32,West,270,1.4,2.2,19,0.00,CLR,FEW,0.00,0.0,WeatherDisplay:10.37,2015-04-18 07:27:00,
2015-04-18 00:32:00,46.9,6.7,30.32,West,270,2.3,2.3,19,0.00,CLR,FEW,0.00,0.0,WeatherDisplay:10.37,2015-04-18 07:32:00,
2015-04-18 00:37:00,46.9,6.7,30.32,West,270,0.0,0.0,19,0.00,CLR,FEW,0.00,0.0,WeatherDisplay:10.37,2015-04-18 07:37:00,
2015-04-18 00:42:00,46.9,6.7,30.32,West,270,0.0,0.0,19,0.00,CLR,FEW,0.00,0.0,WeatherDisplay:10.37,2015-04-18 07:42:00,
2015-04-18 00:47:00,46.9,6.7,30.32,West,270,2.3,2.3,19,0.00,CLR,FEW,0.00,0.0,WeatherDisplay:10.37,2015-04-18 07:47:00,
2015-04-18 00:52:00,46.9,6.7,30.32,WNW,292,2.4,2.4,19,0.00,CLR,FEW,0.00,0.0,WeatherDisplay:10.37,2015-04-18 07:52:00,
2015-04-18 00:57:00,45.3,6.5,30.32,West,270,2.3,2.3,20,0.00,CLR,FEW,0.00,0.0,WeatherDisplay:10.37,2015-04-18 07:57:00,
2015-04-18 01:02:00,45.1,6.4,30.32,West,270,1.6,1.6,20,0.00,CLR,FEW,0.00,0.0,WeatherDisplay:10.37,2015-04-18 08:02:00,
2015-04-18 01:12:00,45.1,6.4,30.32,West,270,1.6,1.6,20,0.00,CLR,FEW,0.00,0.0,WeatherDisplay:10.37,2015-04-18 08:12:00,
2015-04-18 01:17:00,45.0,6.2,30.32,West,270,2.6,2.6,20,0.00,CLR,FEW,0.00,0.0,WeatherDisplay:10.37,2015-04-18 08:17:00,
2015-04-18 01:22:00,44.8,6.1,30.32,West,270,2.6,2.6,20,0.00,CLR,FEW,0.00,0.0,WeatherDisplay:10.37,2015-04-18 08:22:00,
2015-04-18 01:27:00,45.0,6.2,30.32,West,270,2.3,2.3,20,0.00,CLR,FEW,0.00,0.0,WeatherDisplay:10.37,2015-04-18 08:27:00,
2015-04-18 01:32:00,45.1,6.4,30.32,West,270,2.4,2.4,20,0.00,CLR,FEW,0.00,0.0,WeatherDisplay:10.37,2015-04-18 08:32:00,
2015-04-18 01:37:00,45.3,6.5,30.32,West,270,2.3,2.3,20,0.00,CLR,FEW,0.00,0.0,WeatherDisplay:10.37,2015-04-18 08:37:00,
2015-04-18 01:42:00,45.1,6.4,30.32,West,270,0.0,0.0,20,0.00,CLR,FEW,0.00,0.0,WeatherDisplay:10.37,2015-04-18 08:42:00,
2015-04-18 01:47:00,44.8,6.1,30.32,West,270,2.6,2.6,20,0.00,CLR,FEW,0.00,0.0,WeatherDisplay:10.37,2015-04-18 08:47:00,
2015-04-18 01:52:00,44.2,5.6,30.32,WNW,292,2.3,2.3,20,0.00,CLR,FEW,0.00,0.0,WeatherDisplay:10.37,2015-04-18 08:52:00,
2015-04-18 01:57:00,44.2,5.6,30.32,West,270,2.3,2.3,20,0.00,CLR,FEW,0.00,0.0,WeatherDisplay:10.37,2015-04-18 08:57:00,
2015-04-18 02:02:00,44.2,5.6,30.32,West,270,0.0,0.0,20,0.00,CLR,FEW,0.00,0.0,WeatherDisplay:10.37,2015-04-18 09:02:00,
2015-04-18 02:07:00,43.7,5.2,30.32,West,270,2.3,2.3,20,0.00,CLR,FEW,0.00,0.0,WeatherDisplay:10.37,2015-04-18 09:07:00,
2015-04-18 02:12:00,43.3,4.9,30.32,WNW,292,2.6,2.6,20,0.00,CLR,FEW,0.00,0.0,WeatherDisplay:10.37,2015-04-18 09:12:00,
2015-04-18 02:17:00,43.0,4.6,30.32,WNW,292,2.3,2.3,20,0.00,CLR,FEW,0.00,0.0,WeatherDisplay:10.37,2015-04-18 09:17:00,
2015-04-18 02:22:00,43.0,4.6,30.32,WNW,292,0.0,0.0,20,0.00,CLR,FEW,0.00,0.0,WeatherDisplay:10.37,2015-04-18 09:22:00,
2015-04-18 02:27:00,42.8,4.4,30.32,WNW,292,2.3,2.3,20,0.00,CLR,FEW,0.00,0.0,WeatherDisplay:10.37,2015-04-18 09:27:00,
2015-04-18 02:32:00,42.6,5.3,30.32,WNW,292,1.4,1.4,21,0.00,CLR,FEW,0.00,0.0,WeatherDisplay:10.37,2015-04-18 09:32:00,
2015-04-18 02:37:00,42.8,4.4,30.32,WNW,292,1.4,1.4,20,0.00,CLR,FEW,0.00,0.0,WeatherDisplay:10.37,2015-04-18 09:37:00,
2015-04-18 02:42:00,42.8,4.4,30.32,WNW,292,1.4,1.4,20,0.00,CLR,FEW,0.00,0.0,WeatherDisplay:10.37,2015-04-18 09:42:00,
2015-04-18 02:47:00,43.0,4.6,30.32,WNW,292,1.4,1.4,20,0.00,CLR,FEW,0.00,0.0,WeatherDisplay:10.37,2015-04-18 09:47:00,
2015-04-18 02:52:00,43.3,4.9,30.32,WNW,292,1.4,1.4,20,0.00,CLR,FEW,0.00,0.0,WeatherDisplay:10.37,2015-04-18 09:52:00,
2015-04-18 02:57:00,43.3,4.9,30.32,WNW,292,1.4,1.4,20,0.00,CLR,FEW,0.00,0.0,WeatherDisplay:10.37,2015-04-18 09:57:00,
2015-04-18 03:02:00,43.5,5.0,30.32,WNW,292,1.4,1.4,20,0.00,CLR,FEW,0.00,0.0,WeatherDisplay:10.37,2015-04-18 10:02:00,
2015-04-18 03:07:00,43.5,5.0,30.32,WNW,292,1.4,1.4,20,0.00,CLR,FEW,0.00,0.0,WeatherDisplay:10.37,2015-04-18 10:07:00,
2015-04-18 03:12:00,43.5,5.0,30.32,West,270,2.4,2.4,20,0.00,CLR,FEW,0.00,0.0,WeatherDisplay:10.37,2015-04-18 10:12:00,
2015-04-18 03:17:00,43.3,4.9,30.32,WSW,248,2.6,2.6,20,0.00,CLR,FEW,0.00,0.0,WeatherDisplay:10.37,2015-04-18 10:17:00,
2015-04-18 03:22:00,43.7,5.2,30.32,WSW,248,2.6,2.6,20,0.00,CLR,FEW,0.00,0.0,WeatherDisplay:10.37,2015-04-18 10:22:00,
2015-04-18 03:27:00,43.5,5.0,30.32,WSW,248,2.3,2.3,20,0.00,CLR,FEW,0.00,0.0,WeatherDisplay:10.37,2015-04-18 10:27:00,
2015-04-18 03:32:00,43.5,5.0,30.32,West,270,2.3,2.3,20,0.00,CLR,FEW,0.00,0.0,WeatherDisplay:10.37,2015-04-18 10:32:00,
2015-04-18 03:37:00,43.3,4.9,30.32,West,259,2.0,2.0,20,0.00,CLR,FEW,0.00,0.0,WeatherDisplay:10.37,2015-04-18 10:37:00,
2015-04-18 03:42:00,43.2,4.7,30.32,WSW,252,1.0,2.0,20,0.00,CLR,FEW,0.00,0.0,WeatherDisplay:10.37,2015-04-18 10:42:00,
2015-04-18 03:47:00,42.8,4.4,30.32,West,270,2.4,2.4,20,0.00,CLR,FEW,0.00,0.0,WeatherDisplay:10.37,2015-04-18 10:47:00,
2015-04-18 03:52:00,42.4,5.2,30.32,West,270,2.4,2.4,21,0.00,CLR,FEW,0.00,0.0,WeatherDisplay:10.37,2015-04-18 10:52:00,
2015-04-18 03:57:00,42.8,4.4,30.32,WSW,248,2.4,2.6,20,0.00,CLR,FEW,0.00,0.0,WeatherDisplay:10.37,2015-04-18 10:57:00,
2015-04-18 04:02:00,42.8,4.4,30.32,WSW,248,2.3,2.3,20,0.00,CLR,FEW,0.00,0.0,WeatherDisplay:10.37,2015-04-18 11:02:00,
2015-04-18 04:07:00,42.6,5.3,30.32,WSW,248,2.3,2.3,21,0.00,CLR,FEW,0.00,0.0,WeatherDisplay:10.37,2015-04-18 11:07:00,
2015-04-18 04:12:00,42.4,5.2,30.32,WSW,248,2.3,2.3,21,0.00,CLR,FEW,0.00,0.0,WeatherDisplay:10.37,2015-04-18 11:12:00,
2015-04-18 04:17:00,42.3,5.0,30.32,West,270,2.6,2.6,21,0.00,CLR,FEW,0.00,0.0,WeatherDisplay:10.37,2015-04-18 11:17:00,
2015-04-18 04:22:00,41.9,4.7,30.32,WNW,292,2.6,2.6,21,0.00,CLR,FEW,0.00,0.0,WeatherDisplay:10.37,2015-04-18 11:22:00,
2015-04-18 04:27:00,41.7,4.6,30.32,West,270,2.3,2.3,21,0.00,CLR,FEW,0.00,0.0,WeatherDisplay:10.37,2015-04-18 11:27:00,
2015-04-18 04:32:00,41.5,4.4,30.32,West,270,2.3,2.3,21,0.00,CLR,FEW,0.00,0.0,WeatherDisplay:10.37,2015-04-18 11:32:00,
2015-04-18 04:37:00,41.5,4.4,30.32,West,270,3.5,3.5,21,0.00,CLR,FEW,0.00,0.0,WeatherDisplay:10.37,2015-04-18 11:37:00,
2015-04-18 04:42:00,41.7,4.6,30.32,West,270,3.5,3.5,21,0.00,CLR,FEW,0.00,0.0,WeatherDisplay:10.37,2015-04-18 11:42:00,
2015-04-18 04:47:00,41.4,6.3,30.32,WNW,292,2.6,2.6,23,0.00,CLR,FEW,0.00,0.0,WeatherDisplay:10.37,2015-04-18 11:47:00,
2015-04-18 04:52:00,41.0,6.0,30.35,WSW,248,2.6,2.6,23,0.00,CLR,FEW,0.00,0.0,WeatherDisplay:10.37,2015-04-18 11:52:00,
2015-04-18 04:57:00,41.0,6.0,30.35,West,270,2.4,2.4,23,0.00,CLR,FEW,0.00,0.0,WeatherDisplay:10.37,2015-04-18 11:57:00,
2015-04-18 05:02:00,40.8,5.8,30.35,West,270,0.0,0.0,23,0.00,CLR,FEW,0.00,0.0,WeatherDisplay:10.37,2015-04-18 12:02:00,
2015-04-18 05:07:00,40.5,5.5,30.30,WNW,292,2.6,2.6,23,0.00,CLR,FEW,0.00,0.0,WeatherDisplay:10.37,2015-04-18 12:07:00,
2015-04-18 05:12:00,40.3,5.4,30.30,West,270,2.3,2.3,23,0.00,CLR,FEW,0.00,0.0,WeatherDisplay:10.37,2015-04-18 12:12:00,
2015-04-18 05:17:00,39.9,5.0,30.30,West,270,2.6,0.0,23,0.00,CLR,FEW,0.00,0.0,WeatherDisplay:10.37,2015-04-18 12:17:00,
2015-04-18 05:22:00,39.7,4.9,30.32,West,270,0.0,0.0,23,0.00,CLR,FEW,0.00,0.0,WeatherDisplay:10.37,2015-04-18 12:22:00,
2015-04-18 05:27:00,39.4,4.6,30.32,West,270,2.4,2.4,23,0.00,CLR,FEW,0.00,0.0,WeatherDisplay:10.37,2015-04-18 12:27:00,
2015-04-18 05:32:00,39.6,4.7,30.32,WNW,292,3.5,3.5,23,0.00,CLR,FEW,0.00,0.0,WeatherDisplay:10.37,2015-04-18 12:32:00,
2015-04-18 05:37:00,39.6,4.7,30.30,West,270,0.0,0.0,23,0.00,CLR,FEW,0.00,0.0,WeatherDisplay:10.37,2015-04-18 12:37:00,
2015-04-18 05:42:00,39.2,4.4,30.30,West,270,0.0,0.0,23,0.00,CLR,FEW,0.00,0.0,WeatherDisplay:10.37,2015-04-18 12:42:00,
2015-04-18 05:47:00,38.8,5.1,30.30,West,270,2.3,2.3,24,0.00,CLR,FEW,0.00,0.0,WeatherDisplay:10.37,2015-04-18 12:47:00,
2015-04-18 05:52:00,38.7,4.9,30.30,West,270,2.0,2.0,24,0.00,CLR,FEW,0.00,0.0,WeatherDisplay:10.37,2015-04-18 12:52:00,
2015-04-18 05:57:00,38.7,4.9,30.30,West,270,1.1,1.1,24,0.00,CLR,FEW,0.00,0.0,WeatherDisplay:10.37,2015-04-18 12:57:00,
2015-04-18 06:02:00,38.7,6.7,30.30,West,270,2.3,0.0,26,0.00,OVC,FEW,0.00,0.0,WeatherDisplay:10.37,2015-04-18 13:02:00,
2015-04-18 06:07:00,38.5,6.5,30.32,West,270,2.4,2.4,26,0.00,OVC,FEW,0.00,0.0,WeatherDisplay:10.37,2015-04-18 13:07:00,
2015-04-18 06:12:00,38.7,6.7,30.32,West,270,2.3,2.3,26,0.00,OVC,FEW,0.00,0.0,WeatherDisplay:10.37,2015-04-18 13:12:00,
2015-04-18 06:17:00,38.8,6.8,30.32,West,270,1.1,1.1,26,0.00,OVC,FEW,0.00,0.0,WeatherDisplay:10.37,2015-04-18 13:17:00,
2015-04-18 06:22:00,38.7,6.7,30.35,West,270,0.0,0.0,26,0.00,OVC,FEW,0.00,0.0,WeatherDisplay:10.37,2015-04-18 13:22:00,
2015-04-18 06:27:00,38.8,9.2,30.35,West,270,2.6,2.6,29,0.00,OVC,FEW,0.00,0.0,WeatherDisplay:10.37,2015-04-18 13:27:00,
2015-04-18 06:32:00,39.0,9.4,30.35,WNW,292,3.5,3.5,29,0.00,OVC,FEW,0.00,0.0,WeatherDisplay:10.37,2015-04-18 13:32:00,
2015-04-18 06:37:00,39.7,9.2,30.32,West,270,2.3,2.3,28,0.00,OVC,FEW,0.00,0.0,WeatherDisplay:10.37,2015-04-18 13:37:00,
2015-04-18 06:42:00,40.1,9.6,30.32,West,270,1.1,1.6,28,0.00,OVC,FEW,0.00,0.0,WeatherDisplay:10.37,2015-04-18 13:42:00,
2015-04-18 06:47:00,40.6,10.0,30.32,West,270,1.1,1.1,28,0.00,OVC,FEW,0.00,0.0,WeatherDisplay:10.37,2015-04-18 13:47:00,
2015-04-18 06:52:00,40.8,10.2,30.32,West,270,0.0,0.0,28,0.00,OVC,FEW,0.00,0.0,WeatherDisplay:10.37,2015-04-18 13:52:00,
2015-04-18 06:57:00,41.4,10.6,30.32,WNW,292,2.4,2.4,28,0.00,OVC,FEW,0.00,0.0,WeatherDisplay:10.37,2015-04-18 13:57:00,
2015-04-18 07:02:00,42.1,11.3,30.32,WNW,292,1.1,0.0,28,0.00,OVC,FEW,0.00,0.0,WeatherDisplay:10.37,2015-04-18 14:02:00,
2015-04-18 07:07:00,42.8,11.9,30.32,West,270,0.0,0.0,28,0.00,OVC,FEW,0.00,100.0,WeatherDisplay:10.37,2015-04-18 14:07:00,
2015-04-18 07:12:00,43.7,12.7,30.32,West,270,0.0,0.0,28,0.00,OVC,FEW,0.00,100.0,WeatherDisplay:10.37,2015-04-18 14:12:00,
2015-04-18 07:17:00,44.2,13.1,30.32,West,270,0.0,0.0,28,0.00,OVC,FEW,0.00,100.0,WeatherDisplay:10.37,2015-04-18 14:17:00,
2015-04-18 07:22:00,45.5,13.4,30.30,West,270,0.0,0.0,27,0.00,OVC,FEW,0.00,100.0,WeatherDisplay:10.37,2015-04-18 14:22:00,
2015-04-18 07:27:00,46.8,14.5,30.30,West,270,0.0,0.0,27,0.00,OVC,FEW,0.00,100.0,WeatherDisplay:10.37,2015-04-18 14:27:00,
2015-04-18 07:32:00,47.7,12.6,30.30,NNW,338,0.0,0.0,24,0.00,OVC,FEW,0.00,100.0,WeatherDisplay:10.37,2015-04-18 14:32:00,
2015-04-18 07:37:00,48.6,13.3,30.32,ENE,68,0.0,0.0,24,0.00,OVC,FEW,0.00,100.0,WeatherDisplay:10.37,2015-04-18 14:37:00,
2015-04-18 07:42:00,49.3,14.0,30.32,ENE,68,0.0,0.0,24,0.00,OVC,FEW,0.00,200.0,WeatherDisplay:10.37,2015-04-18 14:42:00,
2015-04-18 07:47:00,50.2,11.7,30.32,ENE,68,0.0,0.0,21,0.00,OVC,FEW,0.00,200.0,WeatherDisplay:10.37,2015-04-18 14:47:00,
2015-04-18 07:52:00,50.7,12.1,30.32,ENE,68,0.0,0.0,21,0.00,OVC,FEW,0.00,200.0,WeatherDisplay:10.37,2015-04-18 14:52:00,
2015-04-18 07:57:00,51.4,12.7,30.32,ENE,68,0.0,0.0,21,0.00,OVC,FEW,0.00,200.0,WeatherDisplay:10.37,2015-04-18 14:57:00,
2015-04-18 08:02:00,52.5,13.6,30.32,East,90,0.0,0.0,21,0.00,OVC,FEW,0.00,200.0,WeatherDisplay:10.37,2015-04-18 15:02:00,
2015-04-18 08:07:00,53.1,14.1,30.32,ESE,112,1.4,1.4,21,0.00,OVC,FEW,0.00,200.0,WeatherDisplay:10.37,2015-04-18 15:07:00,
2015-04-18 08:12:00,53.6,13.4,30.32,ENE,68,2.3,0.0,20,0.00,BKN,FEW,0.00,300.0,WeatherDisplay:10.37,2015-04-18 15:12:00,
2015-04-18 08:17:00,53.6,13.4,30.32,ESE,112,2.3,2.3,20,0.00,BKN,FEW,0.00,300.0,WeatherDisplay:10.37,2015-04-18 15:17:00,
2015-04-18 08:22:00,54.1,13.9,30.32,ESE,112,3.5,3.5,20,0.00,BKN,FEW,0.00,300.0,WeatherDisplay:10.37,2015-04-18 15:22:00,
2015-04-18 08:27:00,54.7,14.3,30.32,ESE,112,3.5,3.5,20,0.00,BKN,FEW,0.00,300.0,WeatherDisplay:10.37,2015-04-18 15:27:00,
2015-04-18 08:32:00,55.0,14.6,30.32,ESE,112,2.3,2.3,20,0.00,BKN,FEW,0.00,300.0,WeatherDisplay:10.37,2015-04-18 15:32:00,
2015-04-18 08:37:00,55.4,14.9,30.32,ENE,68,2.3,2.3,20,0.00,BKN,FEW,0.00,300.0,WeatherDisplay:10.37,2015-04-18 15:37:00,
2015-04-18 08:42:00,55.9,15.4,30.32,NE,45,2.3,2.3,20,0.00,BKN,FEW,0.00,300.0,WeatherDisplay:10.37,2015-04-18 15:42:00,
2015-04-18 08:47:00,56.8,16.1,30.32,NNE,22,0.0,0.0,20,0.00,SCT,FEW,0.00,400.0,WeatherDisplay:10.37,2015-04-18 15:47:00,
2015-04-18 08:52:00,57.2,15.2,30.32,ESE,112,2.3,2.3,19,0.00,FEW,,0.00,400.0,WeatherDisplay:10.37,2015-04-18 15:52:00,
2015-04-18 08:57:00,57.6,15.5,30.32,East,90,2.3,2.3,19,0.00,FEW,,0.00,400.0,WeatherDisplay:10.37,2015-04-18 15:57:00,
2015-04-18 09:02:00,58.3,16.1,30.32,East,90,3.5,3.5,19,0.00,CLR,FEW,0.00,500.0,WeatherDisplay:10.37,2015-04-18 16:02:00,
2015-04-18 09:07:00,58.5,16.3,30.32,ENE,68,2.3,2.3,19,0.00,CLR,FEW,0.00,500.0,WeatherDisplay:10.37,2015-04-18 16:07:00,
2015-04-18 09:12:00,58.6,16.4,30.32,SSE,158,2.3,2.3,19,0.00,CLR,FEW,0.00,500.0,WeatherDisplay:10.37,2015-04-18 16:12:00,
2015-04-18 09:17:00,58.6,16.4,30.32,ENE,68,3.5,3.5,19,0.00,CLR,FEW,0.00,600.0,WeatherDisplay:10.37,2015-04-18 16:17:00,
2015-04-18 09:22:00,58.6,16.4,30.32,SSE,158,3.6,3.6,19,0.00,CLR,FEW,0.00,600.0,WeatherDisplay:10.37,2015-04-18 16:22:00,
2015-04-18 09:27:00,58.5,16.3,30.32,SE,135,5.8,5.8,19,0.00,CLR,FEW,0.00,600.0,WeatherDisplay:10.37,2015-04-18 16:27:00,
2015-04-18 09:32:00,58.5,16.3,30.32,SSE,158,2.6,2.6,19,0.00,CLR,FEW,0.00,600.0,WeatherDisplay:10.37,2015-04-18 16:32:00,
2015-04-18 09:37:00,59.4,17.0,30.32,ESE,112,4.6,4.6,19,0.00,CLR,FEW,0.00,700.0,WeatherDisplay:10.37,2015-04-18 16:37:00,
2015-04-18 09:42:00,59.5,17.2,30.32,ESE,112,3.5,3.5,19,0.00,CLR,FEW,0.00,800.0,WeatherDisplay:10.37,2015-04-18 16:42:00,
2015-04-18 09:47:00,59.9,17.5,30.32,SSE,158,4.6,4.6,19,0.00,CLR,FEW,0.00,800.0,WeatherDisplay:10.37,2015-04-18 16:47:00,
2015-04-18 09:52:00,60.4,17.9,30.30,SSE,158,2.4,2.4,19,0.00,CLR,FEW,0.00,900.0,WeatherDisplay:10.37,2015-04-18 16:52:00,
2015-04-18 09:57:00,61.0,18.4,30.30,ESE,112,3.5,3.5,19,0.00,CLR,FEW,0.00,1000.0,WeatherDisplay:10.37,2015-04-18 16:57:00,
2015-04-18 10:02:00,61.3,18.7,30.30,ENE,68,5.8,5.8,19,0.00,CLR,FEW,0.00,1000.0,WeatherDisplay:10.37,2015-04-18 17:02:00,
2015-04-18 10:07:00,61.5,18.8,30.32,East,90,5.8,5.8,19,0.00,CLR,FEW,0.00,1000.0,WeatherDisplay:10.37,2015-04-18 17:07:00,
2015-04-18 10:12:00,62.2,19.4,30.32,SSE,158,3.5,3.5,19,0.00,CLR,FEW,0.00,1100.0,WeatherDisplay:10.37,2015-04-18 17:12:00,
2015-04-18 10:17:00,62.6,18.4,30.32,SSE,158,5.8,5.8,18,0.00,CLR,FEW,0.00,1200.0,WeatherDisplay:10.37,2015-04-18 17:17:00,
2015-04-18 10:22:00,62.1,19.3,30.32,East,90,6.9,6.9,19,0.00,CLR,FEW,0.00,1300.0,WeatherDisplay:10.37,2015-04-18 17:22:00,
2015-04-18 10:27:00,62.8,18.6,30.32,NE,45,2.3,2.4,18,0.00,CLR,FEW,0.00,1400.0,WeatherDisplay:10.37,2015-04-18 17:27:00,
2015-04-18 10:32:00,63.3,19.0,30.32,SSE,158,3.5,3.5,18,0.00,CLR,FEW,0.00,1500.0,WeatherDisplay:10.37,2015-04-18 17:32:00,
2015-04-18 10:37:00,63.9,19.5,30.32,WNW,292,2.4,2.9,18,0.00,CLR,FEW,0.00,1500.0,WeatherDisplay:10.37,2015-04-18 17:37:00,
2015-04-18 10:42:00,63.9,19.5,30.32,SSW,202,3.5,3.5,18,0.00,CLR,FEW,0.00,1600.0,WeatherDisplay:10.37,2015-04-18 17:42:00,
2015-04-18 10:47:00,63.9,19.5,30.32,NE,45,5.8,5.8,18,0.00,CLR,FEW,0.00,1600.0,WeatherDisplay:10.37,2015-04-18 17:47:00,
2015-04-18 10:52:00,64.0,19.6,30.32,SSE,158,4.6,4.6,18,0.00,CLR,FEW,0.00,1600.0,WeatherDisplay:10.37,2015-04-18 17:52:00,
2015-04-18 10:57:00,64.2,19.8,30.32,SSE,158,10.4,10.4,18,0.00,CLR,FEW,0.00,1600.0,WeatherDisplay:10.37,2015-04-18 17:57:00,
2015-04-18 11:02:00,64.6,20.1,30.32,WNW,292,4.0,4.0,18,0.00,CLR,FEW,0.00,1600.0,WeatherDisplay:10.37,2015-04-18 18:02:00,
2015-04-18 11:07:00,64.9,20.4,30.32,ESE,112,3.5,3.5,18,0.00,CLR,FEW,0.00,1600.0,WeatherDisplay:10.37,2015-04-18 18:07:00,
2015-04-18 11:12:00,66.0,21.2,30.32,ESE,112,4.6,4.6,18,0.00,CLR,FEW,0.00,1600.0,WeatherDisplay:10.37,2015-04-18 18:12:00,
2015-04-18 11:17:00,66.2,20.0,30.32,ESE,112,5.8,5.8,17,0.00,CLR,FEW,0.00,1600.0,WeatherDisplay:10.37,2015-04-18 18:17:00,
2015-04-18 11:22:00,66.0,21.2,30.30,ENE,68,3.5,3.6,18,0.00,CLR,FEW,0.00,1600.0,WeatherDisplay:10.37,2015-04-18 18:22:00,
2015-04-18 11:27:00,66.6,20.3,30.30,ESE,112,2.4,2.4,17,0.00,CLR,FEW,0.00,1600.0,WeatherDisplay:10.37,2015-04-18 18:27:00,
2015-04-18 11:32:00,66.7,17.6,30.30,NE,45,4.6,4.6,15,0.00,CLR,FEW,0.00,1600.0,WeatherDisplay:10.37,2015-04-18 18:32:00,
2015-04-18 11:37:00,67.1,17.8,30.32,SSE,158,3.6,3.6,15,0.00,CLR,FEW,0.00,1600.0,WeatherDisplay:10.37,2015-04-18 18:37:00,
2015-04-18 11:42:00,67.3,18.0,30.32,ESE,112,5.8,5.8,15,0.00,CLR,FEW,0.00,1600.0,WeatherDisplay:10.37,2015-04-18 18:42:00,
2015-04-18 11:47:00,67.3,18.0,30.32,SE,135,3.5,3.5,15,0.00,OVC,FEW,0.00,1600.0,WeatherDisplay:10.37,2015-04-18 18:47:00,
2015-04-18 11:52:00,67.3,18.0,30.35,SSE,158,3.6,3.6,15,0.00,OVC,FEW,0.00,1600.0,WeatherDisplay:10.37,2015-04-18 18:52:00,
2015-04-18 11:57:00,68.0,18.6,30.35,SSE,158,4.6,4.6,15,0.00,OVC,FEW,0.00,1600.0,WeatherDisplay:10.37,2015-04-18 18:57:00,
2015-04-18 12:02:00,68.5,19.0,30.35,ENE,68,6.9,6.9,15,0.00,OVC,FEW,0.00,1600.0,WeatherDisplay:10.37,2015-04-18 19:02:00,
2015-04-18 12:07:00,68.5,19.0,30.32,ENE,68,4.0,4.0,15,0.00,OVC,FEW,0.00,1600.0,WeatherDisplay:10.37,2015-04-18 19:07:00,
2015-04-18 12:12:00,69.1,19.4,30.32,East,90,5.8,5.8,15,0.00,OVC,FEW,0.00,1600.0,WeatherDisplay:10.37,2015-04-18 19:12:00,
2015-04-18 12:17:00,69.1,19.4,30.32,NE,45,5.9,5.9,15,0.00,OVC,FEW,0.00,1600.0,WeatherDisplay:10.37,2015-04-18 19:17:00,
2015-04-18 12:22:00,68.7,19.1,30.32,East,90,6.2,6.2,15,0.00,OVC,FEW,0.00,1600.0,WeatherDisplay:10.37,2015-04-18 19:22:00,
2015-04-18 12:27:00,68.7,19.1,30.32,SE,135,3.5,3.5,15,0.00,OVC,FEW,0.00,1600.0,WeatherDisplay:10.37,2015-04-18 19:27:00,
2015-04-18 12:32:00,69.3,19.6,30.32,East,90,3.8,3.8,15,0.00,OVC,FEW,0.00,1100.0,WeatherDisplay:10.37,2015-04-18 19:32:00,
2015-04-18 12:37:00,69.4,19.7,30.32,North,0,5.6,5.6,15,0.00,OVC,FEW,0.00,1100.0,WeatherDisplay:10.37,2015-04-18 19:37:00,
2015-04-18 12:42:00,70.0,18.5,30.32,East,90,3.5,3.5,14,0.00,OVC,FEW,0.00,1100.0,WeatherDisplay:10.37,2015-04-18 19:42:00,
2015-04-18 12:47:00,69.6,19.9,30.32,ENE,68,5.8,5.8,15,0.00,OVC,FEW,0.00,1100.0,WeatherDisplay:10.37,2015-04-18 19:47:00,
2015-04-18 12:52:00,70.0,18.5,30.32,East,90,5.6,5.6,14,0.00,OVC,FEW,0.00,1100.0,WeatherDisplay:10.37,2015-04-18 19:52:00,
2015-04-18 12:57:00,70.2,18.7,30.32,South,180,3.5,3.5,14,0.00,OVC,FEW,0.00,1100.0,WeatherDisplay:10.37,2015-04-18 19:57:00,
2015-04-18 13:02:00,70.2,18.7,30.32,North,0,5.8,5.8,14,0.00,OVC,FEW,0.00,1100.0,WeatherDisplay:10.37,2015-04-18 20:02:00,
2015-04-18 13:07:00,70.5,19.0,30.30,ESE,112,4.6,4.6,14,0.00,OVC,FEW,0.00,1100.0,WeatherDisplay:10.37,2015-04-18 20:07:00,
2015-04-18 13:12:00,70.9,19.3,30.30,SSE,158,4.6,4.6,14,0.00,OVC,FEW,0.00,1100.0,WeatherDisplay:10.37,2015-04-18 20:12:00,
2015-04-18 13:17:00,70.9,19.3,30.30,SSE,158,5.8,5.8,14,0.00,OVC,FEW,0.00,1100.0,WeatherDisplay:10.37,2015-04-18 20:17:00,
2015-04-18 13:22:00,70.9,19.3,30.30,ESE,112,5.8,5.8,14,0.00,OVC,FEW,0.00,1100.0,WeatherDisplay:10.37,2015-04-18 20:22:00,
2015-04-18 13:27:00,70.9,19.3,30.30,ESE,112,4.6,4.6,14,0.00,OVC,FEW,0.00,1100.0,WeatherDisplay:10.37,2015-04-18 20:27:00,
2015-04-18 13:32:00,71.1,19.4,30.30,ENE,68,3.5,3.5,14,0.00,OVC,FEW,0.00,1100.0,WeatherDisplay:10.37,2015-04-18 20:32:00,
2015-04-18 13:37:00,71.2,19.5,30.30,NE,45,3.1,3.1,14,0.00,OVC,FEW,0.00,1100.0,WeatherDisplay:10.37,2015-04-18 20:37:00,
2015-04-18 13:42:00,71.4,19.7,30.30,North,0,5.8,5.8,14,0.00,OVC,FEW,0.00,1100.0,WeatherDisplay:10.37,2015-04-18 20:42:00,
2015-04-18 13:47:00,71.6,23.0,30.30,SSE,158,3.5,3.5,16,0.00,OVC,FEW,0.00,1100.0,WeatherDisplay:10.37,2015-04-18 20:47:00,
2015-04-18 13:52:00,72.1,20.3,30.26,ESE,112,4.6,4.6,14,0.00,OVC,FEW,0.00,1100.0,WeatherDisplay:10.37,2015-04-18 20:52:00,
2015-04-18 13:57:00,71.4,24.3,30.26,NNW,338,8.1,8.1,17,0.00,OVC,FEW,0.00,1100.0,WeatherDisplay:10.37,2015-04-18 20:57:00,
2015-04-18 14:02:00,71.8,23.1,30.26,NNE,22,5.8,5.8,16,0.00,OVC,FEW,0.00,1100.0,WeatherDisplay:10.37,2015-04-18 21:02:00,
2015-04-18 14:07:00,72.9,20.8,30.26,ESE,112,4.6,4.6,14,0.00,OVC,FEW,0.00,1100.0,WeatherDisplay:10.37,2015-04-18 21:07:00,
2015-04-18 14:12:00,72.3,20.4,30.26,South,180,6.9,6.9,14,0.00,OVC,FEW,0.00,1100.0,WeatherDisplay:10.37,2015-04-18 21:12:00,
2015-04-18 14:17:00,71.8,23.1,30.26,ESE,112,4.6,4.6,16,0.00,OVC,FEW,0.00,1100.0,WeatherDisplay:10.37,2015-04-18 21:17:00,
2015-04-18 14:22:00,72.5,23.7,30.26,East,90,5.8,5.8,16,0.00,OVC,FEW,0.00,1100.0,WeatherDisplay:10.37,2015-04-18 21:22:00,
2015-04-18 14:27:00,72.3,23.6,30.26,SSE,158,7.1,7.1,16,0.00,OVC,FEW,0.00,1100.0,WeatherDisplay:10.37,2015-04-18 21:27:00,
2015-04-18 14:32:00,71.8,23.1,30.26,SSE,158,5.8,5.8,16,0.00,OVC,FEW,0.00,1100.0,WeatherDisplay:10.37,2015-04-18 21:32:00,
2015-04-18 14:37:00,71.6,19.8,30.26,South,180,3.5,3.5,14,0.00,OVC,FEW,0.00,1100.0,WeatherDisplay:10.37,2015-04-18 21:37:00,
2015-04-18 14:42:00,72.5,23.7,30.26,SE,135,2.3,2.3,16,0.00,OVC,FEW,0.00,1100.0,WeatherDisplay:10.37,2015-04-18 21:42:00,
2015-04-18 14:47:00,72.9,24.0,30.26,ESE,112,5.8,5.8,16,0.00,OVC,FEW,0.00,1100.0,WeatherDisplay:10.37,2015-04-18 21:47:00,
2015-04-18 14:52:00,73.6,24.6,30.26,East,90,3.6,3.6,16,0.00,OVC,FEW,0.00,1100.0,WeatherDisplay:10.37,2015-04-18 21:52:00,
2015-04-18 14:57:00,73.2,24.3,30.26,ESE,112,4.6,4.6,16,0.00,OVC,FEW,0.00,1100.0,WeatherDisplay:10.37,2015-04-18 21:57:00,
2015-04-18 15:02:00,73.4,24.4,30.26,ESE,112,4.6,4.6,16,0.00,OVC,FEW,0.00,1100.0,WeatherDisplay:10.37,2015-04-18 22:02:00,
2015-04-18 15:07:00,73.2,24.3,30.24,SSE,158,5.8,5.8,16,0.00,OVC,FEW,0.00,1100.0,WeatherDisplay:10.37,2015-04-18 22:07:00,
2015-04-18 15:12:00,73.2,24.3,30.24,ENE,68,4.0,4.0,16,0.00,OVC,FEW,0.00,1100.0,WeatherDisplay:10.37,2015-04-18 22:12:00,
2015-04-18 15:17:00,73.0,24.2,30.24,ESE,112,4.6,4.6,16,0.00,OVC,FEW,0.00,1100.0,WeatherDisplay:10.37,2015-04-18 22:17:00,
2015-04-18 15:22:00,73.2,24.3,30.26,SSE,158,5.8,5.8,16,0.00,OVC,FEW,0.00,1100.0,WeatherDisplay:10.37,2015-04-18 22:22:00,
2015-04-18 15:27:00,72.5,23.7,30.26,NNW,338,4.6,4.6,16,0.00,OVC,FEW,0.00,1100.0,WeatherDisplay:10.37,2015-04-18 22:27:00,
2015-04-18 15:32:00,72.9,24.0,30.26,SSE,158,4.6,4.6,16,0.00,OVC,FEW,0.00,1100.0,WeatherDisplay:10.37,2015-04-18 22:32:00,
2015-04-18 15:37:00,72.5,23.7,30.26,SSE,158,3.5,3.5,16,0.00,OVC,FEW,0.00,1100.0,WeatherDisplay:10.37,2015-04-18 22:37:00,
2015-04-18 15:42:00,72.9,24.0,30.26,WNW,292,5.8,5.8,16,0.00,OVC,FEW,0.00,1100.0,WeatherDisplay:10.37,2015-04-18 22:42:00,
2015-04-18 15:47:00,73.0,24.2,30.26,WNW,292,4.9,4.9,16,0.00,OVC,FEW,0.00,1100.0,WeatherDisplay:10.37,2015-04-18 22:47:00,
2015-04-18 15:52:00,73.0,24.2,30.26,NE,45,2.4,2.4,16,0.00,OVC,FEW,0.00,1600.0,WeatherDisplay:10.37,2015-04-18 22:52:00,
2015-04-18 15:57:00,73.4,24.4,30.26,East,90,5.8,5.8,16,0.00,OVC,FEW,0.00,1600.0,WeatherDisplay:10.37,2015-04-18 22:57:00,
2015-04-18 16:02:00,73.8,24.7,30.26,ENE,68,3.5,3.5,16,0.00,OVC,FEW,0.00,1500.0,WeatherDisplay:10.37,2015-04-18 23:02:00,
2015-04-18 16:07:00,74.1,25.0,30.26,SSE,158,5.8,5.8,16,0.00,OVC,FEW,0.00,1400.0,WeatherDisplay:10.37,2015-04-18 23:07:00,
2015-04-18 16:12:00,73.6,24.6,30.26,WNW,292,3.5,3.5,16,0.00,OVC,FEW,0.00,1400.0,WeatherDisplay:10.37,2015-04-18 23:12:00,
2015-04-18 16:22:00,73.6,24.6,30.26,South,180,2.3,2.3,16,0.00,OVC,FEW,0.00,1200.0,WeatherDisplay:10.37,2015-04-18 23:22:00,
2015-04-18 16:27:00,73.9,24.9,30.26,SE,135,4.9,4.9,16,0.00,OVC,FEW,0.00,1100.0,WeatherDisplay:10.37,2015-04-18 23:27:00,
2015-04-18 16:37:00,73.6,24.6,30.26,ESE,112,4.6,4.6,16,0.00,OVC,FEW,0.00,1100.0,WeatherDisplay:10.37,2015-04-18 23:37:00,
2015-04-18 16:42:00,73.6,24.6,30.26,ESE,112,6.9,6.9,16,0.00,OVC,FEW,0.00,900.0,WeatherDisplay:10.37,2015-04-18 23:42:00,
2015-04-18 16:47:00,73.2,24.3,30.26,East,90,2.4,2.4,16,0.00,OVC,FEW,0.00,800.0,WeatherDisplay:10.37,2015-04-18 23:47:00,
2015-04-18 16:52:00,73.0,24.2,30.26,ESE,112,4.6,4.6,16,0.00,OVC,FEW,0.00,700.0,WeatherDisplay:10.37,2015-04-18 23:52:00,
2015-04-18 16:57:00,73.0,24.2,30.26,ENE,68,5.8,5.8,16,0.00,OVC,FEW,0.00,600.0,WeatherDisplay:10.37,2015-04-18 23:57:00,
2015-04-18 17:02:00,72.9,24.0,30.26,ENE,68,4.6,4.6,16,0.00,OVC,FEW,0.00,600.0,WeatherDisplay:10.37,2015-04-19 00:02:00,